Time;durP1;ratioP1;P1;durP2;ratioP2;P2;SDS_P1;SDS_P2;PMS_P1;PMS_P2;Temp;Humidity;BMP_temperature;BMP_pressure;BME280_temperature;BME280_humidity;BME280_pressure;Samples;Min_cycle;Max_cycle;Signal;HPM_P1;HPM_P2
2024/03/19 00:02:03;;;;;;;2.97;2.07;;;;;;;8.76;91.66;95693.00;5084072;28;20180;-78
2024/03/19 00:04:28;;;;;;;2.33;1.63;;;;;;;8.73;91.62;95695.00;5068740;28;20180;-79
2024/03/19 00:06:53;;;;;;;1.93;1.73;;;;;;;8.71;92.45;95695.16;5065522;28;20212;-78
2024/03/19 00:09:19;;;;;;;2.83;1.87;;;;;;;8.71;92.05;95694.31;5069787;28;20180;-79
2024/03/19 00:11:44;;;;;;;1.70;1.60;;;;;;;8.72;92.09;95690.78;5085260;28;20192;-78
2024/03/19 00:14:09;;;;;;;3.30;1.93;;;;;;;8.72;91.58;95690.78;5069378;28;20189;-79
2024/03/19 00:16:35;;;;;;;1.93;1.83;;;;;;;8.73;91.18;95695.00;5067407;28;20682;-79
2024/03/19 00:19:00;;;;;;;2.57;1.90;;;;;;;8.69;91.56;95701.41;5069667;28;20184;-78
2024/03/19 00:21:26;;;;;;;2.23;2.07;;;;;;;8.62;91.86;95698.53;5069704;28;20181;-79
2024/03/19 00:23:52;;;;;;;2.50;1.70;;;;;;;8.61;91.57;95701.25;5085834;28;20180;-79
2024/03/19 00:26:17;;;;;;;4.47;2.77;;;;;;;8.55;91.30;95699.19;5083061;28;20214;-79
2024/03/19 00:28:43;;;;;;;10.37;6.33;;;;;;;8.49;91.80;95695.38;5068170;28;20788;-79
2024/03/19 00:31:10;;;;;;;15.43;8.23;;;;;;;8.52;92.00;95695.09;5083188;28;20244;-79
2024/03/19 00:33:35;;;;;;;10.43;6.27;;;;;;;8.50;92.33;95702.19;5086365;28;20244;-79
2024/03/19 00:36:06;;;;;;;7.27;4.43;;;;;;;8.47;93.71;95702.41;5069028;28;20192;-79
2024/03/19 00:38:31;;;;;;;7.07;4.33;;;;;;;8.47;92.68;95700.66;5083313;28;20215;-79
2024/03/19 00:40:56;;;;;;;6.90;3.53;;;;;;;8.48;92.49;95699.72;5068230;28;20193;-78
2024/03/19 00:43:22;;;;;;;5.17;4.30;;;;;;;8.46;92.25;95693.03;5069647;28;20216;-79
2024/03/19 00:45:47;;;;;;;5.60;3.27;;;;;;;8.42;92.44;95704.59;5070258;28;20192;-79
2024/03/19 00:48:13;;;;;;;5.10;3.30;;;;;;;8.36;92.07;95697.34;5069385;28;20212;-79
2024/03/19 00:50:38;;;;;;;2.90;2.50;;;;;;;8.34;92.60;95697.44;5085517;28;20295;-79
2024/03/19 00:53:03;;;;;;;4.17;2.40;;;;;;;8.31;92.90;95702.06;5100380;28;20224;-79
2024/03/19 00:55:29;;;;;;;2.83;2.10;;;;;;;8.27;92.60;95693.72;5067635;28;20192;-78
2024/03/19 00:57:54;;;;;;;2.70;2.07;;;;;;;8.28;92.90;95691.97;5085262;28;20201;-79
2024/03/19 01:00:19;;;;;;;2.30;2.10;;;;;;;8.23;92.86;95689.78;5083992;28;20193;-79
2024/03/19 01:02:45;;;;;;;4.33;2.00;;;;;;;8.22;92.70;95682.97;5084065;28;20181;-79
2024/03/19 01:05:11;;;;;;;2.53;2.00;;;;;;;8.21;93.07;95687.31;5068076;28;20199;-79
2024/03/19 01:07:44;;;;;;;2.53;2.27;;;;;;;8.20;92.70;95679.69;5100353;28;20215;-79
2024/03/19 01:10:11;;;;;;;3.00;2.07;;;;;;;8.29;93.28;95678.91;5068394;28;20677;-79
2024/03/19 01:12:37;;;;;;;2.30;2.10;;;;;;;8.31;93.49;95683.97;5082129;28;20192;-79
2024/03/19 01:15:03;;;;;;;2.20;1.87;;;;;;;8.39;92.97;95684.13;5065489;28;20200;-79
2024/03/19 01:17:28;;;;;;;2.50;2.03;;;;;;;8.37;93.14;95679.09;5048592;28;20212;-79
2024/03/19 01:19:54;;;;;;;2.10;1.90;;;;;;;8.47;92.63;95673.94;5067977;28;20211;-79
2024/03/19 01:22:19;;;;;;;1.70;1.60;;;;;;;8.45;92.27;95674.09;5099970;28;20211;-78
2024/03/19 01:24:45;;;;;;;2.67;2.47;;;;;;;8.40;92.21;95673.69;5074532;28;20271;-78
2024/03/19 01:27:11;;;;;;;3.03;2.10;;;;;;;8.33;92.33;95666.53;5063924;28;20262;-78
2024/03/19 01:29:37;;;;;;;2.30;2.10;;;;;;;8.29;92.31;95667.72;5082435;28;20197;-79
2024/03/19 01:32:03;;;;;;;3.20;2.37;;;;;;;8.26;92.63;95668.00;5064631;28;20231;-77
2024/03/19 01:34:29;;;;;;;2.30;2.10;;;;;;;8.20;92.60;95664.97;5074134;28;20384;-77
2024/03/19 01:36:54;;;;;;;2.73;2.53;;;;;;;8.17;92.26;95665.25;5077988;28;20208;-78
2024/03/19 01:39:22;;;;;;;3.67;1.97;;;;;;;8.10;92.28;95669.28;5083243;28;20654;-75
2024/03/19 01:41:54;;;;;;;3.47;2.20;;;;;;;8.07;92.47;95664.38;5076536;28;20522;-79
2024/03/19 01:44:20;;;;;;;4.07;2.27;;;;;;;7.95;92.34;95670.56;5068140;28;20196;-80
2024/03/19 01:46:45;;;;;;;2.07;1.87;;;;;;;7.84;93.01;95663.72;5082182;28;20224;-76
2024/03/19 01:49:12;;;;;;;2.23;2.03;;;;;;;7.85;92.83;95661.94;5074134;28;20184;-79
2024/03/19 01:51:37;;;;;;;2.47;2.27;;;;;;;7.85;92.74;95664.53;5064619;28;20687;-79
2024/03/19 01:54:03;;;;;;;2.73;2.23;;;;;;;7.82;92.56;95667.38;5066872;28;20199;-78
2024/03/19 01:56:30;;;;;;;2.20;2.00;;;;;;;7.77;92.41;95664.34;5073213;28;20212;-77
2024/03/19 01:58:56;;;;;;;2.80;2.00;;;;;;;7.72;92.48;95659.56;5073538;28;20181;-77
2024/03/19 02:01:21;;;;;;;2.23;2.03;;;;;;;7.66;92.90;95660.91;5074538;28;20185;-78
2024/03/19 02:03:48;;;;;;;3.17;1.97;;;;;;;7.62;92.51;95662.09;5099909;28;20190;-77
2024/03/19 02:06:15;;;;;;;2.30;2.10;;;;;;;7.63;92.02;95663.75;5070826;28;20208;-79
2024/03/19 02:09:05;;;;;;;2.30;2.10;;;;;;;7.57;92.49;95669.41;5064202;28;20196;-79
2024/03/19 02:11:31;;;;;;;2.40;2.20;;;;;;;7.52;92.30;95668.16;5066543;28;20232;-78
2024/03/19 02:14:00;;;;;;;2.03;1.93;;;;;;;7.54;92.40;95656.75;5065654;28;20196;-80
2024/03/19 02:16:25;;;;;;;2.73;2.20;;;;;;;7.47;92.45;95653.03;5080781;28;20211;-79
2024/03/19 02:18:58;;;;;;;2.70;2.20;;;;;;;7.49;92.49;95658.88;5083792;28;20574;-79
2024/03/19 02:21:25;;;;;;;2.70;2.47;;;;;;;7.45;92.63;95661.84;5081883;28;20180;-79
2024/03/19 02:23:51;;;;;;;2.77;2.17;;;;;;;7.42;92.55;95654.34;5082216;28;20608;-79
2024/03/19 02:26:16;;;;;;;2.40;2.20;;;;;;;7.44;92.65;95645.53;5064764;28;20279;-79
2024/03/19 02:28:42;;;;;;;2.40;2.20;;;;;;;7.49;92.36;95643.38;5066250;28;20204;-79
2024/03/19 02:31:07;;;;;;;2.70;2.40;;;;;;;7.48;92.30;95644.31;5066805;28;20208;-79
2024/03/19 02:33:32;;;;;;;3.00;2.30;;;;;;;7.48;92.46;95646.91;5082493;28;20654;-77
2024/03/19 02:35:58;;;;;;;2.93;2.60;;;;;;;7.48;92.72;95646.91;5090772;28;20187;-77
2024/03/19 02:38:24;;;;;;;2.77;2.47;;;;;;;7.50;93.12;95650.19;5073174;28;20180;-77
2024/03/19 02:40:50;;;;;;;4.13;2.63;;;;;;;7.57;92.91;95650.50;5071085;28;20192;-77
2024/03/19 02:43:15;;;;;;;3.03;2.60;;;;;;;7.55;93.41;95650.63;5056913;28;20204;-77
2024/03/19 02:45:41;;;;;;;2.50;2.27;;;;;;;7.58;93.25;95652.94;5096156;28;20173;-77
2024/03/19 02:48:12;;;;;;;3.57;2.60;;;;;;;7.57;93.44;95646.16;5096073;28;20215;-78
2024/03/19 02:50:37;;;;;;;3.00;2.70;;;;;;;7.55;93.27;95642.06;5076976;28;20188;-77
2024/03/19 02:53:03;;;;;;;2.97;2.77;;;;;;;7.59;92.84;95640.84;5061644;28;20191;-77
2024/03/19 02:55:28;;;;;;;2.90;2.43;;;;;;;7.56;94.02;95639.34;5060987;28;20205;-77
2024/03/19 02:57:53;;;;;;;4.13;2.53;;;;;;;7.67;93.96;95646.19;5076786;28;20275;-77
2024/03/19 03:00:19;;;;;;;2.83;2.63;;;;;;;7.73;94.15;95644.88;5077982;28;20211;-78
2024/03/19 03:02:44;;;;;;;2.80;2.60;;;;;;;7.78;93.92;95647.91;5095409;28;20211;-77
2024/03/19 03:05:10;;;;;;;7.00;2.70;;;;;;;7.80;93.41;95648.59;5095818;28;20210;-78
2024/03/19 03:07:35;;;;;;;2.50;2.30;;;;;;;7.76;92.96;95647.19;5075056;28;20727;-77
2024/03/19 03:10:00;;;;;;;3.03;2.70;;;;;;;7.75;93.20;95645.56;5078757;28;20606;-77
2024/03/19 03:12:25;;;;;;;2.70;2.50;;;;;;;7.66;93.84;95645.38;5077221;28;20569;-77
2024/03/19 03:14:51;;;;;;;4.50;2.77;;;;;;;7.66;93.44;95645.38;5078542;28;20187;-77
2024/03/19 03:17:16;;;;;;;2.83;2.50;;;;;;;7.68;94.39;95645.25;5059256;28;20208;-77
2024/03/19 03:19:41;;;;;;;3.17;2.67;;;;;;;7.72;94.28;95645.84;5062017;28;20189;-77
2024/03/19 03:22:07;;;;;;;2.50;2.30;;;;;;;7.73;94.61;95644.88;5098510;28;20180;-77
2024/03/19 03:24:32;;;;;;;3.17;2.30;;;;;;;7.75;93.98;95645.56;5061066;28;20192;-77
2024/03/19 03:26:58;;;;;;;2.63;2.27;;;;;;;7.76;94.32;95652.38;5076721;28;20200;-77
2024/03/19 03:29:25;;;;;;;3.30;2.60;;;;;;;7.71;95.25;95654.53;5096548;28;20184;-77
2024/03/19 03:31:50;;;;;;;2.50;2.30;;;;;;;7.74;95.49;95655.09;5059777;28;20209;-77
2024/03/19 03:34:16;;;;;;;2.90;2.10;;;;;;;7.81;94.76;95652.81;5094428;28;20231;-77
2024/03/19 03:36:41;;;;;;;3.87;2.83;;;;;;;7.61;95.72;95655.31;5095620;28;20204;-77
2024/03/19 03:39:07;;;;;;;2.73;2.43;;;;;;;7.67;95.43;95654.78;5081574;28;20200;-77
2024/03/19 03:41:32;;;;;;;2.40;2.20;;;;;;;7.71;94.76;95655.34;5065399;28;20188;-77
2024/03/19 03:43:58;;;;;;;2.50;2.30;;;;;;;7.78;94.28;95651.31;5065973;28;20200;-77
2024/03/19 03:46:23;;;;;;;2.93;2.00;;;;;;;7.75;94.04;95655.91;5064880;28;20215;-77
2024/03/19 03:48:48;;;;;;;2.13;1.93;;;;;;;7.73;93.62;95653.44;5065692;28;20184;-77
2024/03/19 03:51:14;;;;;;;2.63;2.20;;;;;;;7.72;94.69;95651.00;5079286;28;20203;-77
2024/03/19 03:53:39;;;;;;;2.73;2.37;;;;;;;7.73;94.40;95648.28;5081681;28;20184;-77
2024/03/19 03:56:04;;;;;;;3.30;2.57;;;;;;;7.72;94.43;95654.41;5082027;28;20180;-78
2024/03/19 03:58:30;;;;;;;3.20;2.30;;;;;;;7.75;94.55;95653.31;5078776;28;20560;-76
2024/03/19 04:00:56;;;;;;;4.17;2.20;;;;;;;7.78;94.27;95653.91;5097091;28;20172;-77
2024/03/19 04:03:21;;;;;;;4.00;2.17;;;;;;;7.72;93.64;95654.41;5064062;28;20191;-77
2024/03/19 04:05:48;;;;;;;2.73;2.47;;;;;;;7.72;94.09;95659.56;5065173;28;20287;-77
2024/03/19 04:08:13;;;;;;;2.43;2.23;;;;;;;7.66;94.55;95663.47;5082029;28;20711;-77
2024/03/19 04:10:38;;;;;;;3.10;2.30;;;;;;;7.73;94.22;95668.16;5080441;28;20205;-77
2024/03/19 04:13:04;;;;;;;2.17;1.93;;;;;;;7.71;93.54;95657.13;5081713;28;20188;-77
2024/03/19 04:15:29;;;;;;;2.77;2.20;;;;;;;7.71;94.12;95662.28;5063271;28;20188;-77
2024/03/19 04:17:54;;;;;;;3.57;2.10;;;;;;;7.69;94.32;95659.03;5081828;28;20208;-77
2024/03/19 04:20:20;;;;;;;4.30;2.13;;;;;;;7.70;94.03;95668.41;5064657;28;20192;-77
2024/03/19 04:22:45;;;;;;;3.73;1.93;;;;;;;7.69;93.66;95667.59;5096630;28;20177;-77
2024/03/19 04:25:11;;;;;;;2.93;2.17;;;;;;;7.67;93.58;95662.53;5099562;28;20185;-77
2024/03/19 04:27:37;;;;;;;2.40;2.20;;;;;;;7.65;94.08;95668.78;5078848;28;20269;-76
2024/03/19 04:30:03;;;;;;;3.03;2.00;;;;;;;7.59;94.85;95670.09;5081582;28;20180;-77
2024/03/19 04:32:28;;;;;;;2.97;2.27;;;;;;;7.50;95.35;95673.44;5059645;28;20198;-78
2024/03/19 04:34:53;;;;;;;3.83;2.27;;;;;;;7.44;95.95;95673.97;5086270;28;20192;-77
2024/03/19 04:37:19;;;;;;;2.50;2.30;;;;;;;7.53;94.99;95675.78;5080109;28;20234;-77
2024/03/19 04:39:44;;;;;;;2.53;2.23;;;;;;;7.48;95.26;95675.31;5080551;28;20180;-76
2024/03/19 04:42:15;;;;;;;2.60;2.40;;;;;;;7.41;96.00;95676.75;5077025;28;20185;-78
2024/03/19 04:44:40;;;;;;;2.90;2.30;;;;;;;7.55;94.95;95673.06;5063488;28;20185;-77
2024/03/19 04:47:06;;;;;;;2.50;2.17;;;;;;;7.59;94.25;95670.09;5079815;28;20218;-77
2024/03/19 04:49:31;;;;;;;2.00;1.80;;;;;;;7.74;93.36;95667.19;5061352;28;20188;-78
2024/03/19 04:51:56;;;;;;;2.20;2.00;;;;;;;7.77;92.77;95665.16;5063719;28;20238;-78
2024/03/19 04:54:21;;;;;;;2.80;2.50;;;;;;;7.70;93.00;95673.59;5078816;28;20592;-78
2024/03/19 04:56:47;;;;;;;3.30;2.30;;;;;;;7.69;93.32;95671.94;5077089;28;20686;-77
2024/03/19 04:59:12;;;;;;;2.30;2.10;;;;;;;7.63;93.72;95674.06;5063874;28;20724;-77
2024/03/19 05:01:37;;;;;;;2.00;1.80;;;;;;;7.67;93.99;95672.06;5077094;28;20191;-78
2024/03/19 05:04:03;;;;;;;1.80;1.70;;;;;;;7.69;93.32;95666.78;5063347;28;20188;-77
2024/03/19 05:06:28;;;;;;;1.93;1.83;;;;;;;7.59;94.00;95666.69;5080047;28;20260;-77
2024/03/19 05:08:54;;;;;;;2.87;1.80;;;;;;;7.60;94.29;95670.94;5081024;28;20180;-77
2024/03/19 05:11:19;;;;;;;2.53;1.80;;;;;;;7.64;93.68;95667.97;5097426;28;20192;-77
2024/03/19 05:13:45;;;;;;;3.03;1.80;;;;;;;7.69;93.46;95665.00;5080051;28;20184;-77
2024/03/19 05:16:10;;;;;;;2.67;1.63;;;;;;;7.73;92.76;95665.56;5077154;28;20203;-77
2024/03/19 05:18:36;;;;;;;4.37;1.90;;;;;;;7.62;93.16;95664.69;5061780;28;20192;-78
2024/03/19 05:21:01;;;;;;;2.00;1.90;;;;;;;7.61;92.88;95670.81;5079589;28;20208;-77
2024/03/19 05:23:27;;;;;;;3.77;1.67;;;;;;;7.42;94.30;95665.50;5078654;28;20563;-78
2024/03/19 05:25:53;;;;;;;1.90;1.77;;;;;;;7.42;94.37;95662.94;5060627;28;20223;-78
2024/03/19 05:28:18;;;;;;;2.30;2.10;;;;;;;7.42;94.25;95665.50;5060415;28;20661;-77
2024/03/19 05:30:44;;;;;;;1.60;1.50;;;;;;;7.48;94.10;95675.31;5065457;28;20243;-79
2024/03/19 05:33:09;;;;;;;1.77;1.67;;;;;;;7.41;94.01;95674.19;5083371;28;20192;-77
2024/03/19 05:35:34;;;;;;;2.03;1.83;;;;;;;7.52;93.93;95675.91;5081710;28;20184;-78
2024/03/19 05:38:00;;;;;;;4.87;3.03;;;;;;;7.49;93.91;95682.13;5083877;28;20228;-78
2024/03/19 05:40:25;;;;;;;24.70;13.87;;;;;;;7.53;92.79;95675.78;5066658;28;20183;-78
2024/03/19 05:42:50;;;;;;;10.63;8.63;;;;;;;7.46;93.57;95687.56;5096387;28;20203;-78
2024/03/19 05:45:16;;;;;;;3.87;3.53;;;;;;;7.45;93.94;95688.50;5083587;28;20278;-78
2024/03/19 05:47:41;;;;;;;3.27;3.00;;;;;;;7.46;94.31;95684.97;5082061;28;20239;-78
2024/03/19 05:50:12;;;;;;;3.30;3.00;;;;;;;7.53;94.17;95680.13;5081432;28;20184;-78
2024/03/19 05:52:38;;;;;;;2.67;2.47;;;;;;;7.67;93.63;95685.78;5081983;28;20670;-78
2024/03/19 05:55:04;;;;;;;3.33;3.13;;;;;;;7.75;93.34;95680.00;5081092;28;20707;-77
2024/03/19 05:57:29;;;;;;;4.93;4.10;;;;;;;7.72;92.81;95680.25;5083354;28;20204;-78
2024/03/19 05:59:55;;;;;;;5.80;5.30;;;;;;;7.80;93.10;95683.03;5061734;28;20196;-77
2024/03/19 06:02:20;;;;;;;6.70;6.20;;;;;;;7.84;92.60;95688.75;5067279;28;20193;-77
2024/03/19 06:04:45;;;;;;;5.27;4.57;;;;;;;7.83;93.36;95687.13;5083256;28;20199;-78
2024/03/19 06:07:11;;;;;;;8.70;5.40;;;;;;;8.00;92.25;95691.69;5067122;28;20212;-78
2024/03/19 06:09:43;;;;;;;10.60;7.43;;;;;;;8.15;91.61;95695.59;5065206;28;20199;-78
2024/03/19 06:12:09;;;;;;;9.23;6.67;;;;;;;8.17;91.71;95695.47;5082967;28;20200;-78
2024/03/19 06:14:34;;;;;;;5.03;4.37;;;;;;;8.21;91.27;95692.47;5082406;28;20192;-77
2024/03/19 06:17:00;;;;;;;4.50;2.20;;;;;;;8.15;91.91;95693.00;5080249;28;20298;-78
2024/03/19 06:19:25;;;;;;;3.27;2.50;;;;;;;8.26;91.32;95693.88;5066221;28;20188;-78
2024/03/19 06:21:51;;;;;;;2.90;2.63;;;;;;;8.26;91.26;95697.28;5100457;28;20177;-78
2024/03/19 06:24:16;;;;;;;3.83;3.43;;;;;;;8.34;91.07;95697.44;5066667;28;20231;-78
2024/03/19 06:26:43;;;;;;;4.77;4.20;;;;;;;8.39;91.36;95699.66;5078936;28;20209;-78
2024/03/19 06:29:08;;;;;;;3.33;3.03;;;;;;;8.34;91.40;95701.81;5083224;28;20187;-77
2024/03/19 06:31:34;;;;;;;3.10;2.80;;;;;;;8.58;90.38;95704.94;5065707;28;20215;-78
2024/03/19 06:33:59;;;;;;;3.07;2.67;;;;;;;8.67;89.93;95704.13;5074715;28;20199;-78
2024/03/19 06:36:24;;;;;;;3.50;3.20;;;;;;;8.62;90.39;95698.53;5066229;28;20231;-78
2024/03/19 06:38:50;;;;;;;2.63;2.43;;;;;;;8.74;90.27;95700.06;5065126;28;20195;-78
2024/03/19 06:41:15;;;;;;;2.20;1.90;;;;;;;8.74;90.26;95710.41;5079901;28;20180;-77
2024/03/19 06:43:40;;;;;;;2.70;1.67;;;;;;;8.88;90.18;95714.41;5060147;28;20207;-77
2024/03/19 06:46:06;;;;;;;4.37;2.30;;;;;;;8.80;90.20;95709.06;5062044;28;20188;-77
2024/03/19 06:48:32;;;;;;;2.30;2.10;;;;;;;9.13;89.47;95710.50;5078445;28;20505;-78
2024/03/19 06:50:57;;;;;;;1.70;1.60;;;;;;;9.15;89.49;95713.78;5078020;28;20218;-77
2024/03/19 06:53:23;;;;;;;1.90;1.50;;;;;;;9.20;89.27;95711.59;5056804;28;20192;-77
2024/03/19 06:55:48;;;;;;;3.27;1.70;;;;;;;9.51;88.32;95703.69;5056724;28;20199;-77
2024/03/19 06:58:14;;;;;;;1.70;1.50;;;;;;;9.61;88.11;95709.69;5073593;28;20196;-78
2024/03/19 07:00:40;;;;;;;1.63;1.53;;;;;;;9.93;86.80;95710.19;5078791;28;20191;-78
2024/03/19 07:03:06;;;;;;;2.27;1.67;;;;;;;10.10;86.33;95721.63;5074363;28;20172;-77
2024/03/19 07:05:32;;;;;;;3.57;1.73;;;;;;;10.50;85.80;95716.19;5055631;28;20738;-77
2024/03/19 07:07:58;;;;;;;2.40;1.63;;;;;;;10.79;84.34;95720.47;5058944;28;20286;-77
2024/03/19 07:10:24;;;;;;;1.87;1.47;;;;;;;11.11;83.32;95713.97;5091732;28;20268;-78
2024/03/19 07:12:49;;;;;;;2.20;1.40;;;;;;;11.31;81.66;95713.72;5060684;28;20677;-77
2024/03/19 07:15:15;;;;;;;2.57;1.40;;;;;;;11.62;81.87;95714.16;5075945;28;20205;-77
2024/03/19 07:17:49;;;;;;;1.57;1.33;;;;;;;12.02;80.45;95718.06;5057905;28;20239;-77
2024/03/19 07:20:15;;;;;;;1.50;1.40;;;;;;;12.01;79.55;95721.63;5077062;28;20720;-77
2024/03/19 07:22:40;;;;;;;1.30;1.20;;;;;;;11.86;77.69;95729.19;5068734;28;20188;-77
2024/03/19 07:25:07;;;;;;;1.57;1.30;;;;;;;12.11;76.63;95730.19;5061020;28;20184;-77
2024/03/19 07:27:36;;;;;;;1.27;1.10;;;;;;;12.28;75.98;95736.31;5078020;28;20630;-77
2024/03/19 07:30:02;;;;;;;1.60;1.50;;;;;;;12.16;75.97;95730.50;5056800;28;20181;-77
2024/03/19 07:32:27;;;;;;;1.53;1.43;;;;;;;12.16;75.97;95740.94;5095655;28;20596;-76
2024/03/19 07:34:52;;;;;;;2.03;1.20;;;;;;;12.28;76.49;95738.91;5074140;28;20181;-77
2024/03/19 07:37:18;;;;;;;1.40;1.10;;;;;;;11.99;76.66;95741.78;5059378;28;20200;-77
2024/03/19 07:39:43;;;;;;;2.10;1.30;;;;;;;12.00;75.85;95740.00;5060668;28;20230;-77
2024/03/19 07:42:09;;;;;;;1.40;1.30;;;;;;;12.36;74.74;95740.72;5076994;28;20204;-77
2024/03/19 07:44:36;;;;;;;1.50;1.40;;;;;;;12.43;74.90;95746.94;5089101;28;20169;-77
2024/03/19 07:47:04;;;;;;;1.37;1.27;;;;;;;12.56;74.48;95744.75;5074697;28;20197;-77
2024/03/19 07:49:29;;;;;;;1.07;1.07;;;;;;;12.75;73.83;95748.94;5072052;28;20203;-78
2024/03/19 07:51:54;;;;;;;1.33;1.10;;;;;;;12.87;73.31;95760.69;5077346;28;20205;-78
2024/03/19 07:54:26;;;;;;;3.03;1.20;;;;;;;12.96;72.79;95764.97;5060846;28;20202;-77
2024/03/19 07:56:52;;;;;;;2.90;1.10;;;;;;;12.98;71.75;95767.41;5080195;28;20207;-76
2024/03/19 07:59:17;;;;;;;1.30;1.03;;;;;;;12.74;71.32;95771.56;5072582;28;20181;-77
2024/03/19 08:01:43;;;;;;;2.70;1.30;;;;;;;13.13;70.87;95776.28;5073957;28;20181;-77
2024/03/19 08:04:08;;;;;;;3.07;2.80;;;;;;;13.14;70.88;95780.53;5076488;28;20177;-77
2024/03/19 08:06:33;;;;;;;3.00;1.70;;;;;;;13.27;72.54;95783.53;5078008;28;20218;-77
2024/03/19 08:08:59;;;;;;;3.97;3.67;;;;;;;13.13;73.64;95785.91;5094918;28;20271;-77
2024/03/19 08:11:25;;;;;;;2.77;2.50;;;;;;;13.23;73.99;95782.22;5074259;28;20207;-77
2024/03/19 08:13:50;;;;;;;1.70;1.50;;;;;;;13.01;74.07;95782.75;5072632;28;20185;-77
2024/03/19 08:16:16;;;;;;;1.87;1.70;;;;;;;12.83;74.49;95792.47;5089800;28;20200;-77
2024/03/19 08:18:42;;;;;;;2.63;1.40;;;;;;;13.13;72.46;95797.13;5075061;28;20192;-77
2024/03/19 08:21:08;;;;;;;2.97;2.77;;;;;;;12.95;73.98;95799.84;5058526;28;20184;-80
2024/03/19 08:23:35;;;;;;;3.30;3.00;;;;;;;12.71;74.97;95792.69;5056456;28;20177;-78
2024/03/19 08:26:00;;;;;;;3.27;2.93;;;;;;;12.96;74.04;95800.66;5080083;28;20184;-78
2024/03/19 08:28:26;;;;;;;4.03;2.37;;;;;;;13.17;74.12;95800.28;5062726;28;20687;-77
2024/03/19 08:30:51;;;;;;;2.40;2.20;;;;;;;13.19;74.44;95799.16;5066783;28;20227;-77
2024/03/19 08:33:16;;;;;;;2.67;2.47;;;;;;;13.24;74.52;95796.06;5063660;28;20200;-77
2024/03/19 08:35:42;;;;;;;3.27;2.80;;;;;;;13.33;73.60;95798.53;5097317;28;20185;-78
2024/03/19 08:38:07;;;;;;;2.73;2.40;;;;;;;13.19;74.36;95795.69;5079396;28;20207;-77
2024/03/19 08:40:33;;;;;;;14.00;10.57;;;;;;;13.62;73.69;95799.94;5080332;28;20225;-77
2024/03/19 08:42:59;;;;;;;4.50;4.10;;;;;;;13.49;72.88;95804.78;5078896;28;20216;-77
2024/03/19 08:45:25;;;;;;;4.30;2.17;;;;;;;13.32;74.43;95802.13;5060011;28;20177;-77
2024/03/19 08:47:53;;;;;;;2.27;2.07;;;;;;;13.63;72.52;95811.19;5064330;28;20262;-77
2024/03/19 08:50:19;;;;;;;2.67;2.27;;;;;;;13.72;71.98;95803.22;5078492;28;20256;-77
2024/03/19 08:52:44;;;;;;;3.23;2.57;;;;;;;13.45;72.39;95808.69;5077657;28;20612;-77
2024/03/19 08:55:12;;;;;;;3.40;2.53;;;;;;;13.23;74.28;95803.06;5075478;28;20192;-77
2024/03/19 08:57:37;;;;;;;2.90;2.40;;;;;;;12.76;75.18;95800.88;5061183;28;20211;-77
2024/03/19 09:00:10;;;;;;;3.47;3.17;;;;;;;13.21;75.10;95815.47;5095459;28;20188;-77
2024/03/19 09:02:35;;;;;;;5.40;2.53;;;;;;;12.89;76.29;95808.25;5076828;28;20173;-77
2024/03/19 09:05:01;;;;;;;2.57;1.90;;;;;;;13.37;74.58;95809.50;5064671;28;20211;-77
2024/03/19 09:07:26;;;;;;;1.70;1.60;;;;;;;12.96;73.37;95806.69;5082302;28;20200;-77
2024/03/19 09:09:52;;;;;;;3.00;1.87;;;;;;;12.73;71.96;95805.59;5077693;28;20528;-77
2024/03/19 09:12:17;;;;;;;3.10;1.30;;;;;;;12.89;72.00;95807.44;5063751;28;20595;-77
2024/03/19 09:14:43;;;;;;;1.93;1.83;;;;;;;13.08;71.49;95814.25;5063497;28;20188;-77
2024/03/19 09:17:09;;;;;;;2.80;1.50;;;;;;;13.36;69.70;95813.06;5077711;28;20204;-77
2024/03/19 09:19:39;;;;;;;2.50;2.10;;;;;;;13.27;70.16;95819.25;5074728;28;20184;-78
2024/03/19 09:22:05;;;;;;;2.23;1.97;;;;;;;13.39;70.42;95815.34;5060305;28;20204;-77
2024/03/19 09:24:30;;;;;;;2.17;1.90;;;;;;;13.36;71.76;95812.25;5061513;28;20554;-77
2024/03/19 09:26:56;;;;;;;2.30;1.80;;;;;;;13.74;72.25;95810.88;5096772;28;20226;-77
2024/03/19 09:29:21;;;;;;;3.33;3.03;;;;;;;13.78;72.18;95813.03;5078005;28;20226;-77
2024/03/19 09:31:47;;;;;;;1.80;1.70;;;;;;;14.27;68.69;95814.84;5080109;28;20685;-77
2024/03/19 09:34:12;;;;;;;2.53;2.33;;;;;;;14.21;68.45;95813.69;5074694;28;20617;-77
2024/03/19 09:36:38;;;;;;;2.70;1.80;;;;;;;14.26;68.20;95823.66;5092543;28;20256;-77
2024/03/19 09:39:10;;;;;;;2.50;1.70;;;;;;;13.82;70.80;95819.53;5075528;28;20197;-77
2024/03/19 09:41:36;;;;;;;2.17;1.93;;;;;;;14.49;68.04;95823.81;5075492;28;20244;-77
2024/03/19 09:44:01;;;;;;;2.00;1.80;;;;;;;14.80;67.34;95823.97;5078547;28;20231;-77
2024/03/19 09:46:27;;;;;;;2.33;2.07;;;;;;;14.67;67.99;95822.69;5062364;28;20204;-77
2024/03/19 09:48:52;;;;;;;1.87;1.70;;;;;;;14.57;68.05;95823.81;5093027;28;20981;-77
2024/03/19 09:51:21;;;;;;;3.27;1.73;;;;;;;14.23;68.08;95829.22;5079125;28;20295;-77
2024/03/19 09:53:46;;;;;;;2.33;1.40;;;;;;;14.45;65.97;95826.78;5073625;28;20208;-77
2024/03/19 09:56:19;;;;;;;2.37;1.60;;;;;;;14.34;65.88;95819.25;5094956;28;20195;-77
2024/03/19 09:58:47;;;;;;;2.50;1.40;;;;;;;14.29;67.10;95823.31;5078497;28;20764;-77
2024/03/19 10:01:13;;;;;;;1.83;1.27;;;;;;;14.13;68.76;95824.13;5078156;28;20184;-77
2024/03/19 10:03:39;;;;;;;1.53;1.33;;;;;;;14.09;67.32;95826.25;5073882;28;20224;-77
2024/03/19 10:06:05;;;;;;;1.53;1.30;;;;;;;13.99;66.76;95825.59;5095237;28;20193;-77
2024/03/19 10:08:30;;;;;;;1.80;1.60;;;;;;;14.05;68.86;95818.94;5076642;28;20227;-77
2024/03/19 10:10:55;;;;;;;2.07;1.30;;;;;;;13.51;67.63;95826.31;5093883;28;20208;-77
2024/03/19 10:13:21;;;;;;;1.70;1.40;;;;;;;13.54;67.93;95818.19;5076784;28;20193;-77
2024/03/19 10:15:50;;;;;;;1.63;1.13;;;;;;;13.57;67.21;95826.50;5060487;28;20513;-77
2024/03/19 10:18:15;;;;;;;3.33;1.37;;;;;;;13.62;67.59;95827.81;5076896;28;20208;-77
2024/03/19 10:20:42;;;;;;;1.30;1.20;;;;;;;13.63;66.77;95827.66;5060202;28;20561;-77
2024/03/19 10:23:10;;;;;;;1.13;1.00;;;;;;;13.56;66.83;95821.44;5062980;28;20188;-77
2024/03/19 10:25:37;;;;;;;1.30;1.20;;;;;;;13.56;67.06;95834.50;5077297;28;20236;-77
2024/03/19 10:28:06;;;;;;;1.97;1.63;;;;;;;13.91;66.31;95817.75;5075174;28;20204;-77
2024/03/19 10:30:31;;;;;;;3.00;1.80;;;;;;;13.99;66.24;95817.78;5060950;28;20236;-78
2024/03/19 10:32:57;;;;;;;2.37;1.30;;;;;;;13.99;65.53;95817.78;5078867;28;20334;-77
2024/03/19 10:35:23;;;;;;;2.50;1.43;;;;;;;14.34;65.31;95824.47;5045174;28;20588;-78
2024/03/19 10:37:50;;;;;;;1.90;1.17;;;;;;;14.35;65.99;95815.66;5054769;28;20215;-77
2024/03/19 10:40:17;;;;;;;1.27;1.17;;;;;;;14.41;64.49;95819.41;5077033;28;20271;-78
2024/03/19 10:42:44;;;;;;;1.50;1.40;;;;;;;14.54;64.15;95818.94;5078380;28;20200;-77
2024/03/19 10:45:20;;;;;;;1.90;1.13;;;;;;;14.87;62.77;95820.50;5075833;28;20272;-77
2024/03/19 10:47:47;;;;;;;2.03;1.70;;;;;;;14.77;62.03;95819.88;5075014;28;20660;-77
2024/03/19 10:50:15;;;;;;;1.80;1.30;;;;;;;14.73;63.42;95822.00;5079475;28;20698;-77
2024/03/19 10:53:01;;;;;;;1.90;1.33;;;;;;;14.84;63.06;95818.25;5059729;28;20177;-77
2024/03/19 10:55:27;;;;;;;1.20;1.10;;;;;;;14.86;62.51;95823.28;5076341;28;20188;-77
2024/03/19 10:57:52;;;;;;;1.30;1.20;;;;;;;15.23;61.79;95820.06;5077067;28;20200;-77
2024/03/19 11:00:25;;;;;;;2.43;1.10;;;;;;;15.64;61.89;95819.94;5077730;28;20191;-78
2024/03/19 11:02:53;;;;;;;1.87;1.70;;;;;;;16.01;61.21;95819.19;5063260;28;20268;-77
2024/03/19 11:05:20;;;;;;;1.70;1.13;;;;;;;16.14;58.67;95822.84;5073614;28;20180;-77
2024/03/19 11:07:54;;;;;;;3.20;1.50;;;;;;;15.87;59.38;95826.00;5052175;28;20632;-77
2024/03/19 11:10:21;;;;;;;2.03;1.60;;;;;;;15.82;58.39;95820.47;5056077;28;20180;-77
2024/03/19 11:12:47;;;;;;;1.60;1.50;;;;;;;15.40;57.17;95829.50;5054216;28;20756;-77
2024/03/19 11:15:16;;;;;;;1.67;1.30;;;;;;;15.68;58.52;95826.44;5056427;28;20208;-77
2024/03/19 11:17:41;;;;;;;2.93;1.70;;;;;;;15.38;59.70;95821.00;5067816;28;20196;-77
2024/03/19 11:20:07;;;;;;;2.35;1.80;;;;;;;15.49;59.66;95818.00;5070745;28;20242;-77
2024/03/19 11:22:33;;;;;;;4.87;4.13;;;;;;;15.85;59.44;95818.31;5090280;28;20183;-77
2024/03/19 11:24:59;;;;;;;2.17;1.40;;;;;;;15.06;59.88;95823.72;5055754;28;20192;-77
2024/03/19 11:27:32;;;;;;;2.65;1.50;;;;;;;14.93;61.70;95817.25;5052020;28;20201;-77
2024/03/19 11:30:05;;;;;;;2.53;1.60;;;;;;;15.42;59.92;95822.28;5059428;28;20686;-77
2024/03/19 11:32:31;;;;;;;1.60;1.50;;;;;;;15.89;57.76;95817.94;5071119;28;20219;-77
2024/03/19 11:34:56;;;;;;;3.13;2.13;;;;;;;15.76;56.85;95815.91;5066812;28;20188;-77